Time;durP1;ratioP1;P1;durP2;ratioP2;P2;SDS_P1;SDS_P2;PMS_P1;PMS_P2;Temp;Humidity;BMP_temperature;BMP_pressure;BME280_temperature;BME280_humidity;BME280_pressure;Samples;Min_cycle;Max_cycle;Signal;HPM_P1;HPM_P2
2021/01/16 00:01:05;;;;;;;3.70;2.78;;;;;;;;;;6170793;23;20152;-81
2021/01/16 00:03:32;;;;;;;3.08;2.45;;;;;;;;;;6169594;23;20174;-81
2021/01/16 00:06:00;;;;;;;3.45;3.15;;;;;;;;;;6193681;23;20147;-82
2021/01/16 00:08:27;;;;;;;2.92;2.30;;;;;;;;;;6192864;23;20656;-81
2021/01/16 00:10:55;;;;;;;4.25;2.10;;;;;;;;;;6173541;23;20183;-82
2021/01/16 00:13:28;;;;;;;2.63;2.38;;;;;;;;;;6200127;23;20168;-80
2021/01/16 00:15:54;;;;;;;2.58;2.38;;;;;;;;;;6192863;23;20562;-80
2021/01/16 00:18:22;;;;;;;2.60;2.40;;;;;;;;;;6194519;23;20159;-79
2021/01/16 00:20:49;;;;;;;2.33;2.13;;;;;;;;;;6192139;23;20222;-80
2021/01/16 00:23:15;;;;;;;4.97;3.22;;;;;;;;;;6167814;23;20181;-80
2021/01/16 00:25:42;;;;;;;3.63;3.17;;;;;;;;;;6167224;23;20155;-81
2021/01/16 00:28:14;;;;;;;3.40;3.10;;;;;;;;;;6193876;23;20163;-81
2021/01/16 00:30:40;;;;;;;2.75;2.10;;;;;;;;;;6197204;23;20151;-81
2021/01/16 00:33:17;;;;;;;5.90;3.25;;;;;;;;;;6178475;23;20182;-79
2021/01/16 00:35:43;;;;;;;5.32;4.93;;;;;;;;;;6209431;23;20142;-80
2021/01/16 00:38:12;;;;;;;2.92;2.63;;;;;;;;;;6209585;23;20226;-80
2021/01/16 00:40:38;;;;;;;3.83;2.92;;;;;;;;;;6177454;23;20481;-80
2021/01/16 00:43:06;;;;;;;4.57;3.05;;;;;;;;;;6190528;23;20139;-80
2021/01/16 00:45:32;;;;;;;3.38;3.08;;;;;;;;;;6183950;23;20183;-81
2021/01/16 00:48:06;;;;;;;2.67;2.47;;;;;;;;;;6213078;23;20181;-85
2021/01/16 00:50:33;;;;;;;3.78;3.30;;;;;;;;;;6212114;23;20191;-84
2021/01/16 00:52:59;;;;;;;2.80;2.58;;;;;;;;;;6207595;23;20143;-81
2021/01/16 00:55:32;;;;;;;3.95;3.60;;;;;;;;;;6169778;23;20164;-82
2021/01/16 00:58:07;;;;;;;4.00;3.60;;;;;;;;;;6170632;23;20657;-80
2021/01/16 01:00:33;;;;;;;2.97;2.67;;;;;;;;;;6171487;23;20139;-80
2021/01/16 01:03:00;;;;;;;2.63;2.42;;;;;;;;;;6170560;23;20152;-82
2021/01/16 01:05:26;;;;;;;2.58;2.38;;;;;;;;;;6194305;23;20203;-82
2021/01/16 01:07:53;;;;;;;4.65;3.00;;;;;;;;;;6194975;23;20167;-79
2021/01/16 01:10:29;;;;;;;2.78;2.58;;;;;;;;;;6168507;23;20209;-80
2021/01/16 01:12:56;;;;;;;3.58;2.95;;;;;;;;;;6196295;23;20138;-82
2021/01/16 01:15:22;;;;;;;3.30;3.00;;;;;;;;;;6198834;23;20578;-80
2021/01/16 01:17:57;;;;;;;3.40;3.10;;;;;;;;;;6200011;23;20179;-80
2021/01/16 01:20:24;;;;;;;2.50;2.30;;;;;;;;;;6170956;23;20193;-81
2021/01/16 01:22:50;;;;;;;4.50;3.70;;;;;;;;;;6168489;23;20155;-80
2021/01/16 01:25:17;;;;;;;3.65;3.35;;;;;;;;;;6194749;23;20147;-80
2021/01/16 01:27:43;;;;;;;4.13;3.40;;;;;;;;;;6194207;23;20163;-80
2021/01/16 01:30:10;;;;;;;4.05;3.40;;;;;;;;;;6195646;23;20167;-80
2021/01/16 01:32:36;;;;;;;4.63;4.05;;;;;;;;;;6195356;23;20249;-80
2021/01/16 01:35:03;;;;;;;3.58;3.25;;;;;;;;;;6173154;23;20156;-81
2021/01/16 01:37:29;;;;;;;3.83;3.53;;;;;;;;;;6194508;23;20175;-78
2021/01/16 01:39:55;;;;;;;3.70;3.40;;;;;;;;;;6194236;23;20139;-80
2021/01/16 01:42:21;;;;;;;4.80;3.55;;;;;;;;;;6196106;23;20166;-81
2021/01/16 01:44:48;;;;;;;5.88;3.80;;;;;;;;;;6194969;23;20144;-79
2021/01/16 01:47:15;;;;;;;7.93;4.13;;;;;;;;;;6195088;23;20193;-80
2021/01/16 01:49:42;;;;;;;4.32;3.95;;;;;;;;;;6194809;23;20184;-81
2021/01/16 01:52:12;;;;;;;5.57;4.05;;;;;;;;;;6169172;23;20171;-81
2021/01/16 01:54:38;;;;;;;3.38;3.10;;;;;;;;;;6197331;23;20143;-81
2021/01/16 01:57:08;;;;;;;3.83;3.20;;;;;;;;;;6195274;23;20633;-80
2021/01/16 01:59:37;;;;;;;3.10;2.80;;;;;;;;;;6196746;23;20492;-82
2021/01/16 02:02:07;;;;;;;5.68;3.83;;;;;;;;;;6199669;23;20124;-79
2021/01/16 02:04:38;;;;;;;5.50;3.47;;;;;;;;;;6184489;23;20170;-80
2021/01/16 02:07:23;;;;;;;4.40;3.60;;;;;;;;;;6211527;23;20186;-79
2021/01/16 02:09:50;;;;;;;4.75;4.35;;;;;;;;;;6204128;23;20178;-81
2021/01/16 02:12:16;;;;;;;9.05;3.53;;;;;;;;;;6193193;23;20151;-80
2021/01/16 02:14:44;;;;;;;5.13;4.55;;;;;;;;;;6191993;23;20151;-81
2021/01/16 02:17:11;;;;;;;4.70;3.92;;;;;;;;;;6167091;23;20186;-79
2021/01/16 02:19:52;;;;;;;5.32;3.60;;;;;;;;;;6193193;23;20144;-81
2021/01/16 02:22:18;;;;;;;5.85;3.88;;;;;;;;;;6202939;23;20127;-81
2021/01/16 02:24:51;;;;;;;4.90;4.03;;;;;;;;;;6189314;23;20139;-82
2021/01/16 02:27:26;;;;;;;5.40;4.70;;;;;;;;;;6189083;23;20176;-83
2021/01/16 02:29:53;;;;;;;8.10;3.97;;;;;;;;;;6214306;23;20217;-79
2021/01/16 02:32:20;;;;;;;5.20;4.00;;;;;;;;;;6197109;23;20458;-79
2021/01/16 02:34:47;;;;;;;4.93;4.05;;;;;;;;;;6191259;23;20140;-80
2021/01/16 02:37:25;;;;;;;4.22;3.92;;;;;;;;;;6192359;23;20245;-80
2021/01/16 02:40:10;;;;;;;4.90;4.40;;;;;;;;;;6191620;23;20178;-79
2021/01/16 02:42:38;;;;;;;5.32;4.82;;;;;;;;;;6172102;23;20135;-80
2021/01/16 02:45:10;;;;;;;6.07;4.68;;;;;;;;;;6170275;23;20139;-81
2021/01/16 02:47:47;;;;;;;5.10;3.55;;;;;;;;;;6170571;23;20174;-79
2021/01/16 02:50:15;;;;;;;4.45;4.05;;;;;;;;;;6196244;23;20162;-78
2021/01/16 02:52:45;;;;;;;5.43;4.13;;;;;;;;;;6169991;23;20151;-79
2021/01/16 02:55:11;;;;;;;7.75;4.93;;;;;;;;;;6197142;23;20582;-79
2021/01/16 02:57:37;;;;;;;6.72;5.07;;;;;;;;;;6197271;23;20498;-79
2021/01/16 03:00:07;;;;;;;5.47;5.05;;;;;;;;;;6195617;23;20144;-80
2021/01/16 03:02:34;;;;;;;4.57;4.18;;;;;;;;;;6197415;23;20163;-80
2021/01/16 03:05:00;;;;;;;6.05;5.45;;;;;;;;;;6197631;23;20147;-81
2021/01/16 03:07:26;;;;;;;5.90;5.18;;;;;;;;;;6197874;23;20163;-80
2021/01/16 03:09:53;;;;;;;5.00;4.15;;;;;;;;;;6197439;23;20699;-80
2021/01/16 03:12:19;;;;;;;7.47;5.30;;;;;;;;;;6197323;23;20167;-82
2021/01/16 03:15:00;;;;;;;4.97;4.40;;;;;;;;;;6197856;23;20461;-80
2021/01/16 03:17:27;;;;;;;6.10;4.15;;;;;;;;;;6197453;23;20500;-80
2021/01/16 03:19:53;;;;;;;5.75;4.72;;;;;;;;;;6195558;23;20147;-80
2021/01/16 03:22:19;;;;;;;7.70;5.40;;;;;;;;;;6195188;23;20148;-80
2021/01/16 03:24:46;;;;;;;5.22;4.30;;;;;;;;;;6201371;23;20140;-79
2021/01/16 03:27:13;;;;;;;5.03;4.63;;;;;;;;;;6202284;23;20167;-79
2021/01/16 03:29:39;;;;;;;5.35;4.85;;;;;;;;;;6198608;23;20456;-80
2021/01/16 03:32:06;;;;;;;4.75;4.30;;;;;;;;;;6203836;23;20147;-80
2021/01/16 03:34:32;;;;;;;5.60;5.07;;;;;;;;;;6180597;23;20238;-80
2021/01/16 03:36:58;;;;;;;9.02;5.60;;;;;;;;;;6206069;23;20164;-79
2021/01/16 03:39:24;;;;;;;5.97;4.88;;;;;;;;;;6229793;22;20185;-79
2021/01/16 03:41:50;;;;;;;5.72;4.07;;;;;;;;;;6284952;22;20147;-79
2021/01/16 03:44:16;;;;;;;7.15;4.50;;;;;;;;;;6310618;22;20141;-78
2021/01/16 03:46:43;;;;;;;5.88;4.70;;;;;;;;;;6282661;22;20239;-78
2021/01/16 03:49:09;;;;;;;6.68;4.70;;;;;;;;;;6311119;22;20168;-79
2021/01/16 03:51:35;;;;;;;6.40;5.78;;;;;;;;;;6284299;22;20522;-79
2021/01/16 03:54:01;;;;;;;5.57;4.15;;;;;;;;;;6284671;22;20144;-79
2021/01/16 03:56:27;;;;;;;8.30;5.78;;;;;;;;;;6312134;22;20141;-78
2021/01/16 03:58:53;;;;;;;7.60;5.78;;;;;;;;;;6312685;22;20144;-78
2021/01/16 04:01:19;;;;;;;4.95;4.53;;;;;;;;;;6284906;22;20514;-79
2021/01/16 04:03:45;;;;;;;4.50;4.10;;;;;;;;;;6311248;22;20145;-79
2021/01/16 04:06:15;;;;;;;4.85;4.45;;;;;;;;;;6311735;22;20239;-78
2021/01/16 04:08:42;;;;;;;7.10;6.32;;;;;;;;;;6312125;22;20583;-79
2021/01/16 04:11:08;;;;;;;5.32;4.82;;;;;;;;;;6286257;22;20225;-80
2021/01/16 04:13:34;;;;;;;8.20;7.05;;;;;;;;;;6285905;22;20160;-80
2021/01/16 04:16:00;;;;;;;7.00;6.35;;;;;;;;;;6286001;22;20163;-79
2021/01/16 04:18:26;;;;;;;6.82;5.90;;;;;;;;;;6313190;22;20145;-80
2021/01/16 04:20:52;;;;;;;5.85;5.25;;;;;;;;;;6313523;22;20164;-79
2021/01/16 04:23:18;;;;;;;10.50;5.82;;;;;;;;;;6313350;22;20210;-79
2021/01/16 04:25:45;;;;;;;6.10;5.18;;;;;;;;;;6314052;22;20141;-80
2021/01/16 04:28:11;;;;;;;5.70;5.20;;;;;;;;;;6313486;22;20186;-80
2021/01/16 04:30:37;;;;;;;7.70;6.20;;;;;;;;;;6313442;22;20210;-79
2021/01/16 04:33:03;;;;;;;9.20;6.90;;;;;;;;;;6313464;22;20167;-79
2021/01/16 04:35:30;;;;;;;6.30;5.13;;;;;;;;;;6286751;22;20141;-80
2021/01/16 04:37:56;;;;;;;5.80;5.20;;;;;;;;;;6314492;22;20148;-80
2021/01/16 04:40:22;;;;;;;5.07;4.57;;;;;;;;;;6313546;22;20183;-79
2021/01/16 04:42:52;;;;;;;6.40;4.80;;;;;;;;;;6313374;22;20570;-78
2021/01/16 04:45:18;;;;;;;8.48;5.68;;;;;;;;;;6311623;22;20144;-79
2021/01/16 04:47:45;;;;;;;6.57;4.88;;;;;;;;;;6283185;22;20187;-79
2021/01/16 04:50:20;;;;;;;6.82;5.40;;;;;;;;;;6283672;22;20168;-79
2021/01/16 04:52:47;;;;;;;6.90;6.22;;;;;;;;;;6286717;22;20143;-80
2021/01/16 04:55:14;;;;;;;6.55;5.25;;;;;;;;;;6314057;22;20479;-80
2021/01/16 04:57:41;;;;;;;5.68;4.80;;;;;;;;;;6285872;22;20144;-79
2021/01/16 05:00:11;;;;;;;6.97;5.07;;;;;;;;;;6312960;22;20198;-80
2021/01/16 05:02:39;;;;;;;5.93;4.82;;;;;;;;;;6286505;22;20224;-80
2021/01/16 05:05:06;;;;;;;6.75;4.90;;;;;;;;;;6286151;22;20175;-79
2021/01/16 05:07:33;;;;;;;7.70;6.03;;;;;;;;;;6285027;22;20167;-79
2021/01/16 05:10:00;;;;;;;9.30;7.15;;;;;;;;;;6314737;22;20194;-78
2021/01/16 05:12:32;;;;;;;8.80;5.47;;;;;;;;;;6261491;22;20148;-78
2021/01/16 05:15:04;;;;;;;9.32;7.40;;;;;;;;;;6286107;22;20147;-79
2021/01/16 05:17:31;;;;;;;12.73;7.50;;;;;;;;;;6315092;22;20137;-79
2021/01/16 05:20:00;;;;;;;7.32;6.13;;;;;;;;;;6285287;22;20323;-79
2021/01/16 05:22:27;;;;;;;6.93;6.10;;;;;;;;;;6284669;22;20479;-79
2021/01/16 05:24:56;;;;;;;6.53;5.85;;;;;;;;;;6284718;22;20176;-79
2021/01/16 05:27:26;;;;;;;7.93;5.97;;;;;;;;;;6312538;22;20149;-79
2021/01/16 05:29:53;;;;;;;6.32;5.65;;;;;;;;;;6284074;22;20194;-79
2021/01/16 05:32:21;;;;;;;10.60;7.20;;;;;;;;;;6312683;22;20175;-79
2021/01/16 05:34:47;;;;;;;8.68;5.63;;;;;;;;;;6260143;22;20148;-79
2021/01/16 05:37:13;;;;;;;8.48;5.85;;;;;;;;;;6312104;22;20231;-79
2021/01/16 05:39:41;;;;;;;7.50;6.15;;;;;;;;;;6312684;22;20176;-78
2021/01/16 05:42:08;;;;;;;7.30;6.50;;;;;;;;;;6313469;22;20136;-79
2021/01/16 05:44:36;;;;;;;10.10;6.95;;;;;;;;;;6311759;22;20140;-79
2021/01/16 05:47:04;;;;;;;9.07;6.68;;;;;;;;;;6283668;22;20159;-79
2021/01/16 05:49:31;;;;;;;7.72;6.03;;;;;;;;;;6311048;22;20160;-79
2021/01/16 05:51:57;;;;;;;7.70;6.45;;;;;;;;;;6310991;22;20172;-79
2021/01/16 05:54:23;;;;;;;6.28;5.65;;;;;;;;;;6313491;22;20594;-79
2021/01/16 05:56:49;;;;;;;11.68;8.00;;;;;;;;;;6313941;22;20140;-79
2021/01/16 05:59:19;;;;;;;9.30;7.18;;;;;;;;;;6286649;22;20682;-79
2021/01/16 06:01:46;;;;;;;7.25;6.53;;;;;;;;;;6312892;22;20141;-79
2021/01/16 06:04:19;;;;;;;7.43;6.20;;;;;;;;;;6314342;22;20578;-79
2021/01/16 06:06:45;;;;;;;7.35;5.78;;;;;;;;;;6314434;22;20145;-79
2021/01/16 06:09:15;;;;;;;7.47;5.25;;;;;;;;;;6314871;22;20160;-79
2021/01/16 06:11:45;;;;;;;7.00;6.30;;;;;;;;;;6314029;22;20168;-79
2021/01/16 06:14:12;;;;;;;8.60;7.13;;;;;;;;;;6287877;22;20487;-80
2021/01/16 06:16:49;;;;;;;10.38;7.13;;;;;;;;;;6289775;22;20144;-80
2021/01/16 06:19:19;;;;;;;12.70;7.45;;;;;;;;;;6262974;22;20186;-81
2021/01/16 06:21:46;;;;;;;8.15;6.18;;;;;;;;;;6316086;22;20148;-79
2021/01/16 06:24:14;;;;;;;9.10;6.72;;;;;;;;;;6288489;22;20175;-79
2021/01/16 06:26:41;;;;;;;7.78;6.95;;;;;;;;;;6315771;22;20145;-80
2021/01/16 06:29:10;;;;;;;7.43;6.72;;;;;;;;;;6287926;22;20653;-79
2021/01/16 06:31:36;;;;;;;8.63;7.70;;;;;;;;;;6316430;22;20203;-80
2021/01/16 06:34:03;;;;;;;9.40;7.85;;;;;;;;;;6315594;22;20145;-80
2021/01/16 06:36:30;;;;;;;8.20;7.03;;;;;;;;;;6314012;22;20175;-79
2021/01/16 06:38:58;;;;;;;9.23;7.88;;;;;;;;;;6286559;22;20218;-79
2021/01/16 06:41:27;;;;;;;7.70;6.47;;;;;;;;;;6315372;22;20140;-79
2021/01/16 06:43:54;;;;;;;9.52;7.28;;;;;;;;;;6315471;22;20141;-79
2021/01/16 06:46:40;;;;;;;9.93;8.13;;;;;;;;;;6315681;22;20140;-79
2021/01/16 06:49:07;;;;;;;8.45;7.43;;;;;;;;;;6315184;22;20216;-80
2021/01/16 06:51:34;;;;;;;8.60;6.90;;;;;;;;;;6288217;22;20221;-79
2021/01/16 06:54:06;;;;;;;9.20;7.90;;;;;;;;;;6262647;22;20190;-79
2021/01/16 06:56:33;;;;;;;10.55;9.45;;;;;;;;;;6289467;22;20187;-80
2021/01/16 06:59:00;;;;;;;10.35;8.57;;;;;;;;;;6315827;22;20141;-79
2021/01/16 07:01:32;;;;;;;9.95;7.20;;;;;;;;;;6287109;22;20147;-79
2021/01/16 07:04:00;;;;;;;9.32;7.00;;;;;;;;;;6287076;22;20181;-79
2021/01/16 07:06:26;;;;;;;8.40;7.60;;;;;;;;;;6313150;22;20141;-80
2021/01/16 07:08:53;;;;;;;9.95;6.63;;;;;;;;;;6313295;22;20172;-79
2021/01/16 07:11:19;;;;;;;10.98;7.85;;;;;;;;;;6285014;22;20227;-79
2021/01/16 07:13:45;;;;;;;10.55;8.50;;;;;;;;;;6259776;22;20479;-79
2021/01/16 07:16:12;;;;;;;8.38;6.53;;;;;;;;;;6311489;22;20148;-79
2021/01/16 07:18:41;;;;;;;10.20;7.78;;;;;;;;;;6312387;22;20474;-79
2021/01/16 07:21:08;;;;;;;8.13;7.22;;;;;;;;;;6312463;22;20251;-78
2021/01/16 07:23:35;;;;;;;11.07;9.27;;;;;;;;;;6314319;22;20137;-78
2021/01/16 07:26:02;;;;;;;10.15;7.65;;;;;;;;;;6286025;22;20144;-79
2021/01/16 07:28:29;;;;;;;12.45;8.02;;;;;;;;;;6285677;22;20143;-79
2021/01/16 07:30:57;;;;;;;9.70;7.75;;;;;;;;;;6286786;22;20212;-79
2021/01/16 07:33:27;;;;;;;9.68;7.22;;;;;;;;;;6314156;22;20133;-79
2021/01/16 07:35:54;;;;;;;11.82;7.90;;;;;;;;;;6313011;22;20167;-79
2021/01/16 07:38:21;;;;;;;7.40;6.43;;;;;;;;;;6235278;22;20468;-79
2021/01/16 07:40:48;;;;;;;11.23;8.63;;;;;;;;;;6314094;22;20172;-79
2021/01/16 07:43:26;;;;;;;9.95;7.82;;;;;;;;;;6287676;22;20167;-79
2021/01/16 07:45:58;;;;;;;9.43;8.45;;;;;;;;;;6315299;22;20171;-80
2021/01/16 07:48:29;;;;;;;9.45;7.90;;;;;;;;;;6313769;22;20212;-79
2021/01/16 07:50:56;;;;;;;8.35;7.55;;;;;;;;;;6314555;22;20173;-80
2021/01/16 07:53:26;;;;;;;9.88;8.88;;;;;;;;;;6321962;22;20144;-80
2021/01/16 07:56:02;;;;;;;12.27;8.02;;;;;;;;;;6324493;22;20147;-79
2021/01/16 07:58:34;;;;;;;8.68;7.60;;;;;;;;;;6318632;22;20147;-79
2021/01/16 08:01:01;;;;;;;11.02;8.98;;;;;;;;;;6287139;22;20644;-79
2021/01/16 08:03:36;;;;;;;9.20;8.02;;;;;;;;;;6314007;22;20164;-80
2021/01/16 08:06:16;;;;;;;10.48;9.02;;;;;;;;;;6285839;22;20196;-78
2021/01/16 08:08:53;;;;;;;11.50;8.38;;;;;;;;;;6313512;22;20215;-79
2021/01/16 08:11:22;;;;;;;9.70;8.70;;;;;;;;;;6287567;22;20187;-81
2021/01/16 08:13:51;;;;;;;9.63;8.48;;;;;;;;;;6264288;22;20141;-81
2021/01/16 08:16:18;;;;;;;12.73;11.43;;;;;;;;;;6287832;22;20145;-80
2021/01/16 08:18:47;;;;;;;11.60;8.80;;;;;;;;;;6288179;22;20190;-80
2021/01/16 08:21:14;;;;;;;9.50;7.35;;;;;;;;;;6288300;22;20152;-80
2021/01/16 08:23:49;;;;;;;12.00;9.48;;;;;;;;;;6262511;22;20141;-80
2021/01/16 08:26:19;;;;;;;9.50;8.48;;;;;;;;;;6287025;22;20176;-79
2021/01/16 08:28:45;;;;;;;8.85;7.97;;;;;;;;;;6316055;22;20186;-80
2021/01/16 08:31:28;;;;;;;12.48;9.23;;;;;;;;;;6315822;22;20179;-78
2021/01/16 08:33:54;;;;;;;9.70;8.70;;;;;;;;;;6313591;22;20132;-77
2021/01/16 08:36:20;;;;;;;15.02;10.25;;;;;;;;;;6312820;22;20133;-79
2021/01/16 08:38:47;;;;;;;13.52;10.80;;;;;;;;;;6313383;22;20147;-79
2021/01/16 08:41:26;;;;;;;8.85;7.90;;;;;;;;;;6310361;22;20152;-79
2021/01/16 08:43:54;;;;;;;13.48;8.65;;;;;;;;;;6311588;22;20170;-79
2021/01/16 08:46:33;;;;;;;9.55;8.55;;;;;;;;;;6315532;22;20145;-78
2021/01/16 08:48:59;;;;;;;9.25;8.35;;;;;;;;;;6301758;22;20148;-79
2021/01/16 08:51:27;;;;;;;10.55;8.90;;;;;;;;;;6319797;22;20215;-79
2021/01/16 08:54:06;;;;;;;11.50;8.57;;;;;;;;;;6316325;22;20148;-79
2021/01/16 08:56:32;;;;;;;9.57;8.63;;;;;;;;;;6287545;22;20148;-79
2021/01/16 08:58:58;;;;;;;12.60;10.05;;;;;;;;;;6286822;22;20144;-79
2021/01/16 09:01:25;;;;;;;9.00;8.10;;;;;;;;;;6286818;22;20180;-78
2021/01/16 09:04:11;;;;;;;9.80;8.55;;;;;;;;;;6284374;22;20163;-79
2021/01/16 09:06:37;;;;;;;13.10;10.25;;;;;;;;;;6312290;22;20172;-78
2021/01/16 09:09:03;;;;;;;10.60;9.43;;;;;;;;;;6285401;22;20165;-80
2021/01/16 09:11:30;;;;;;;8.88;8.10;;;;;;;;;;6312708;22;20161;-79
2021/01/16 09:13:56;;;;;;;15.30;9.75;;;;;;;;;;6312949;22;20140;-80
2021/01/16 09:16:29;;;;;;;13.85;8.68;;;;;;;;;;6286251;22;20152;-79
2021/01/16 09:18:56;;;;;;;11.90;10.27;;;;;;;;;;6312676;22;20140;-79
2021/01/16 09:21:25;;;;;;;13.43;9.68;;;;;;;;;;6312550;22;20148;-78
2021/01/16 09:23:52;;;;;;;11.35;7.78;;;;;;;;;;6313525;22;20144;-79
2021/01/16 09:26:20;;;;;;;11.45;7.85;;;;;;;;;;6313963;22;20145;-78
2021/01/16 09:28:52;;;;;;;9.57;7.50;;;;;;;;;;6286481;22;20155;-81
2021/01/16 09:31:24;;;;;;;10.20;7.88;;;;;;;;;;6287580;22;20171;-79
2021/01/16 09:33:52;;;;;;;11.60;9.30;;;;;;;;;;6291241;22;20165;-80
2021/01/16 09:36:36;;;;;;;9.27;7.43;;;;;;;;;;6313898;22;20172;-78
2021/01/16 09:39:04;;;;;;;12.18;8.60;;;;;;;;;;6316929;22;20141;-78
2021/01/16 09:41:34;;;;;;;10.43;9.43;;;;;;;;;;6290068;22;20192;-83
2021/01/16 09:44:04;;;;;;;9.95;8.93;;;;;;;;;;6262058;22;20241;-83
2021/01/16 09:46:37;;;;;;;10.73;9.60;;;;;;;;;;6289775;22;20180;-82
2021/01/16 09:49:07;;;;;;;14.32;9.27;;;;;;;;;;6264105;22;20159;-79
2021/01/16 09:51:35;;;;;;;11.77;9.50;;;;;;;;;;6257018;22;20200;-80
2021/01/16 09:54:08;;;;;;;12.40;8.95;;;;;;;;;;6283029;22;20161;-83
2021/01/16 09:56:45;;;;;;;9.65;8.75;;;;;;;;;;6257452;22;20149;-82
2021/01/16 09:59:20;;;;;;;10.32;8.75;;;;;;;;;;6255893;22;20164;-83
2021/01/16 10:02:06;;;;;;;11.27;10.07;;;;;;;;;;6257518;22;20175;-82
2021/01/16 10:04:37;;;;;;;12.20;10.93;;;;;;;;;;6256531;22;20191;-81
2021/01/16 10:07:13;;;;;;;10.85;9.73;;;;;;;;;;6283548;22;20622;-82
2021/01/16 10:09:47;;;;;;;9.73;8.60;;;;;;;;;;6258219;22;20149;-82
2021/01/16 10:12:31;;;;;;;9.30;8.40;;;;;;;;;;6283744;22;20554;-81
2021/01/16 10:14:58;;;;;;;9.98;7.60;;;;;;;;;;6284759;22;20169;-81
2021/01/16 10:17:25;;;;;;;10.35;9.18;;;;;;;;;;6256929;22;20232;-81
2021/01/16 10:20:13;;;;;;;10.43;8.55;;;;;;;;;;6282233;22;20161;-82
2021/01/16 10:22:45;;;;;;;14.23;10.60;;;;;;;;;;6285169;22;20460;-84
2021/01/16 10:25:16;;;;;;;12.65;8.90;;;;;;;;;;6257506;22;20689;-80
2021/01/16 10:27:45;;;;;;;10.52;7.53;;;;;;;;;;6283026;22;20174;-84
2021/01/16 10:30:32;;;;;;;7.22;6.50;;;;;;;;;;6286509;22;20169;-83
2021/01/16 10:33:20;;;;;;;11.25;8.00;;;;;;;;;;6271936;22;20165;-83
2021/01/16 10:36:04;;;;;;;9.82;7.80;;;;;;;;;;6277143;22;20145;-84
2021/01/16 10:38:41;;;;;;;10.10;8.60;;;;;;;;;;6278024;22;20157;-82
2021/01/16 10:41:08;;;;;;;7.93;7.10;;;;;;;;;;6278632;22;20224;-82
2021/01/16 10:43:38;;;;;;;9.32;7.93;;;;;;;;;;6286481;22;20149;-82
2021/01/16 10:46:30;;;;;;;9.15;8.27;;;;;;;;;;6260162;22;20479;-83
2021/01/16 10:49:15;;;;;;;10.48;9.43;;;;;;;;;;6284685;22;20169;-85
2021/01/16 10:51:46;;;;;;;9.75;8.15;;;;;;;;;;6258393;22;20212;-83
2021/01/16 10:54:19;;;;;;;11.50;8.38;;;;;;;;;;6259259;22;20161;-82
2021/01/16 10:56:57;;;;;;;9.02;7.78;;;;;;;;;;6259923;22;20138;-82
2021/01/16 10:59:25;;;;;;;12.50;8.23;;;;;;;;;;6285462;22;20220;-83
2021/01/16 11:01:52;;;;;;;12.25;7.60;;;;;;;;;;6262425;22;20148;-80
2021/01/16 11:04:22;;;;;;;14.93;12.75;;;;;;;;;;6288075;22;20205;-84
2021/01/16 11:07:29;;;;;;;8.63;7.20;;;;;;;;;;6283541;22;20183;-82
2021/01/16 11:10:26;;;;;;;11.60;10.27;;;;;;;;;;6285098;22;20193;-83
2021/01/16 11:12:53;;;;;;;9.05;8.15;;;;;;;;;;6286243;22;20520;-82
2021/01/16 11:15:26;;;;;;;9.10;7.60;;;;;;;;;;6261591;22;20172;-82
2021/01/16 11:17:59;;;;;;;11.07;9.55;;;;;;;;;;6260931;22;20245;-81
2021/01/16 11:20:31;;;;;;;15.68;10.00;;;;;;;;;;6286747;22;20526;-81
2021/01/16 11:23:13;;;;;;;12.40;10.18;;;;;;;;;;6283806;22;20142;-82
2021/01/16 11:25:43;;;;;;;12.70;9.55;;;;;;;;;;6262516;22;20266;-83
2021/01/16 11:28:10;;;;;;;8.52;7.55;;;;;;;;;;6290991;22;20228;-82
2021/01/16 11:30:46;;;;;;;8.60;6.70;;;;;;;;;;6293239;22;20247;-82
2021/01/16 11:33:17;;;;;;;8.65;7.70;;;;;;;;;;6289235;22;20152;-82
2021/01/16 11:35:46;;;;;;;11.10;9.38;;;;;;;;;;6271725;22;20145;-82
2021/01/16 11:38:31;;;;;;;10.63;9.20;;;;;;;;;;6272941;22;20146;-83
2021/01/16 11:40:57;;;;;;;9.35;8.20;;;;;;;;;;6271957;22;20203;-81
2021/01/16 11:43:26;;;;;;;10.13;7.80;;;;;;;;;;6295267;22;20140;-81
2021/01/16 11:46:01;;;;;;;9.15;8.30;;;;;;;;;;6296546;22;20145;-80
2021/01/16 11:48:27;;;;;;;8.68;6.95;;;;;;;;;;6275355;22;20179;-81
2021/01/16 11:50:57;;;;;;;10.18;8.00;;;;;;;;;;6300118;22;20227;-83
2021/01/16 11:53:23;;;;;;;9.52;8.52;;;;;;;;;;6271996;22;20150;-83
2021/01/16 11:55:50;;;;;;;12.13;8.30;;;;;;;;;;6275921;22;20161;-81
2021/01/16 11:58:18;;;;;;;8.75;6.97;;;;;;;;;;6301525;22;20142;-81
2021/01/16 12:00:46;;;;;;;8.85;7.95;;;;;;;;;;6272376;22;20173;-79
2021/01/16 12:03:21;;;;;;;7.80;7.00;;;;;;;;;;6299987;22;20141;-82
2021/01/16 12:05:54;;;;;;;9.15;8.15;;;;;;;;;;6271638;22;20214;-82
2021/01/16 12:08:34;;;;;;;;;;;;;;;;;;;;;
2021/01/16 12:11:05;;;;;;;8.82;6.68;;;;;;;;;;6289588;22;20192;-81
2021/01/16 12:13:34;;;;;;;9.13;6.65;;;;;;;;;;6303240;22;20133;-83
2021/01/16 12:16:01;;;;;;;8.57;7.63;;;;;;;;;;6303855;22;20134;-81
2021/01/16 12:18:27;;;;;;;15.90;8.48;;;;;;;;;;6277689;22;20164;-82
2021/01/16 12:20:57;;;;;;;11.55;8.27;;;;;;;;;;6265582;22;20169;-80
2021/01/16 12:23:26;;;;;;;11.30;8.10;;;;;;;;;;6281971;22;20183;-83
2021/01/16 12:25:52;;;;;;;12.00;8.32;;;;;;;;;;6256917;22;20153;-81
2021/01/16 12:28:26;;;;;;;8.90;8.02;;;;;;;;;;6281813;22;20148;-81
2021/01/16 12:30:52;;;;;;;11.20;8.18;;;;;;;;;;6284760;22;20627;-81
2021/01/16 12:33:22;;;;;;;8.77;7.57;;;;;;;;;;6286771;22;20172;-81
2021/01/16 12:35:48;;;;;;;14.98;9.23;;;;;;;;;;6283968;22;20168;-81
2021/01/16 12:38:14;;;;;;;8.43;7.63;;;;;;;;;;6285732;22;20141;-80
2021/01/16 12:40:41;;;;;;;14.18;9.63;;;;;;;;;;6259554;22;20184;-81
2021/01/16 12:43:13;;;;;;;7.43;6.70;;;;;;;;;;6285402;22;20232;-82
2021/01/16 12:45:39;;;;;;;9.63;7.63;;;;;;;;;;6283426;22;20462;-82
2021/01/16 12:48:06;;;;;;;9.73;6.75;;;;;;;;;;6259157;22;20595;-83
2021/01/16 12:50:32;;;;;;;9.02;7.40;;;;;;;;;;6258934;22;20180;-82
2021/01/16 12:52:58;;;;;;;8.73;7.00;;;;;;;;;;6285196;22;20137;-85
2021/01/16 12:55:25;;;;;;;14.88;6.25;;;;;;;;;;6258423;22;20171;-81
2021/01/16 12:57:52;;;;;;;5.90;5.38;;;;;;;;;;6283812;22;20144;-84
2021/01/16 13:00:22;;;;;;;7.32;5.53;;;;;;;;;;6260143;22;20429;-84
2021/01/16 13:02:54;;;;;;;6.20;5.60;;;;;;;;;;6262716;22;20183;-82
2021/01/16 13:05:32;;;;;;;6.68;6.07;;;;;;;;;;6268020;22;20153;-85
2021/01/16 13:08:08;;;;;;;8.73;6.60;;;;;;;;;;6263375;22;20221;-85
2021/01/16 13:10:59;;;;;;;;;;;;;;;;;;;;;
2021/01/16 13:13:36;;;;;;;7.38;5.13;;;;;;;;;;6288783;22;20225;-87
2021/01/16 13:16:06;;;;;;;8.82;6.82;;;;;;;;;;6288349;22;20174;-85
2021/01/16 13:18:35;;;;;;;7.38;6.68;;;;;;;;;;6259881;22;20652;-83
2021/01/16 13:21:09;;;;;;;6.22;5.63;;;;;;;;;;6283926;22;20623;-83
2021/01/16 13:24:10;;;;;;;;;;;;;;;;;;;;;
2021/01/16 13:26:42;;;;;;;6.13;5.53;;;;;;;;;;6287169;22;20176;-82
2021/01/16 13:29:11;;;;;;;7.47;5.70;;;;;;;;;;6294822;22;20129;-84
2021/01/16 13:31:44;;;;;;;7.25;5.93;;;;;;;;;;6286197;22;20595;-84
2021/01/16 13:34:13;;;;;;;7.68;5.30;;;;;;;;;;6287315;22;20193;-82
2021/01/16 13:37:05;;;;;;;;;;;;;;;;;;;;;
2021/01/16 13:39:50;;;;;;;;;;;;;;;;;;;;;
2021/01/16 13:42:31;;;;;;;6.20;5.50;;;;;;;;;;6289056;22;20180;-84
2021/01/16 13:44:58;;;;;;;7.82;5.80;;;;;;;;;;6267035;22;20145;-84
2021/01/16 13:47:25;;;;;;;7.13;6.43;;;;;;;;;;6294668;22;20232;-82
2021/01/16 13:50:22;;;;;;;7.80;7.00;;;;;;;;;;6293670;22;20180;-84
2021/01/16 13:52:54;;;;;;;6.43;5.75;;;;;;;;;;6276031;22;20165;-82
2021/01/16 13:55:37;;;;;;;10.95;7.63;;;;;;;;;;6304055;22;20114;-82
2021/01/16 13:58:06;;;;;;;7.22;5.60;;;;;;;;;;6303056;22;20173;-81
2021/01/16 14:00:41;;;;;;;7.13;5.05;;;;;;;;;;6258771;22;20240;-85
2021/01/16 14:03:40;;;;;;;9.00;6.75;;;;;;;;;;6258867;22;20157;-84
2021/01/16 14:06:16;;;;;;;8.85;6.57;;;;;;;;;;6259444;22;20237;-82
2021/01/16 14:08:54;;;;;;;8.75;7.38;;;;;;;;;;6258525;22;20156;-85
2021/01/16 14:11:40;;;;;;;7.97;6.20;;;;;;;;;;6258048;22;20634;-83
2021/01/16 14:14:35;;;;;;;;;;;;;;;;;;;;;
2021/01/16 14:20:22;;;;;;;7.60;6.78;;;;;;;;;;6255311;22;20267;-82
2021/01/16 14:23:04;;;;;;;10.10;7.40;;;;;;;;;;6285466;22;20168;-84
2021/01/16 14:25:40;;;;;;;7.63;6.78;;;;;;;;;;6290607;22;20149;-85
2021/01/16 14:28:44;;;;;;;;;;;;;;;;;;;;;
2021/01/16 14:31:36;;;;;;;7.40;6.80;;;;;;;;;;6259958;22;20525;-86
2021/01/16 14:35:02;;;;;;;7.63;6.82;;;;;;;;;;6285671;22;20137;-85
2021/01/16 14:37:39;;;;;;;9.27;6.95;;;;;;;;;;6287631;22;20149;-83
2021/01/16 14:40:14;;;;;;;10.40;7.40;;;;;;;;;;6287186;22;20173;-84
2021/01/16 14:43:05;;;;;;;8.70;7.80;;;;;;;;;;6284491;22;20181;-84
2021/01/16 14:45:34;;;;;;;13.10;7.95;;;;;;;;;;6284058;22;20147;-84
2021/01/16 14:48:42;;;;;;;8.93;6.93;;;;;;;;;;6260055;22;20225;-84
2021/01/16 14:51:29;;;;;;;9.02;6.75;;;;;;;;;;6192285;22;20279;-84
2021/01/16 14:54:58;;;;;;;;;;;;;;;;;;;;;
2021/01/16 15:00:46;;;;;;;8.13;6.55;;;;;;;;;;6283456;22;20175;-84
2021/01/16 15:03:17;;;;;;;13.45;7.45;;;;;;;;;;6285597;22;20482;-82
2021/01/16 15:05:54;;;;;;;7.75;6.32;;;;;;;;;;6260479;22;20149;-83
2021/01/16 15:09:06;;;;;;;;;;;;;;;;;;;;;
2021/01/16 15:11:58;;;;;;;9.93;6.72;;;;;;;;;;6285682;22;20176;-83
2021/01/16 15:14:35;;;;;;;8.27;7.43;;;;;;;;;;6290888;22;20142;-84
2021/01/16 15:17:33;;;;;;;7.22;6.22;;;;;;;;;;6293274;22;20141;-85
2021/01/16 15:20:11;;;;;;;5.82;5.28;;;;;;;;;;6263597;22;20612;-84